sensor_id;sensor_type;location;lat;lon;timestamp;P1;durP1;ratioP1;P2;durP2;ratioP2
6850;SDS011;3464;42.728;23.296;2023-03-20T00:00:44;68.87;;;33.60;;
6850;SDS011;3464;42.728;23.296;2023-03-20T00:03:10;54.87;;;28.90;;
6850;SDS011;3464;42.728;23.296;2023-03-20T00:05:36;61.33;;;31.80;;
6850;SDS011;3464;42.728;23.296;2023-03-20T00:08:03;53.87;;;28.30;;
6850;SDS011;3464;42.728;23.296;2023-03-20T00:10:33;55.40;;;30.40;;
6850;SDS011;3464;42.728;23.296;2023-03-20T00:12:57;59.40;;;33.33;;
6850;SDS011;3464;42.728;23.296;2023-03-20T00:15:26;62.90;;;30.47;;
6850;SDS011;3464;42.728;23.296;2023-03-20T00:17:51;71.20;;;34.40;;
6850;SDS011;3464;42.728;23.296;2023-03-20T00:20:18;71.00;;;35.37;;
6850;SDS011;3464;42.728;23.296;2023-03-20T00:22:46;75.27;;;36.50;;
6850;SDS011;3464;42.728;23.296;2023-03-20T00:25:13;65.93;;;34.67;;
6850;SDS011;3464;42.728;23.296;2023-03-20T00:27:39;62.60;;;32.33;;
6850;SDS011;3464;42.728;23.296;2023-03-20T00:30:15;72.97;;;35.07;;
6850;SDS011;3464;42.728;23.296;2023-03-20T00:32:41;76.70;;;38.80;;
6850;SDS011;3464;42.728;23.296;2023-03-20T00:37:43;66.50;;;35.20;;
6850;SDS011;3464;42.728;23.296;2023-03-20T00:40:10;74.90;;;37.30;;
6850;SDS011;3464;42.728;23.296;2023-03-20T00:42:38;73.73;;;37.47;;
6850;SDS011;3464;42.728;23.296;2023-03-20T00:45:07;66.53;;;33.87;;
6850;SDS011;3464;42.728;23.296;2023-03-20T00:47:34;67.90;;;35.50;;
6850;SDS011;3464;42.728;23.296;2023-03-20T00:50:00;72.17;;;36.83;;
6850;SDS011;3464;42.728;23.296;2023-03-20T00:52:27;75.67;;;39.53;;
6850;SDS011;3464;42.728;23.296;2023-03-20T00:54:54;70.23;;;37.20;;
6850;SDS011;3464;42.728;23.296;2023-03-20T00:57:21;75.80;;;37.43;;
6850;SDS011;3464;42.728;23.296;2023-03-20T00:59:53;73.37;;;38.13;;
6850;SDS011;3464;42.728;23.296;2023-03-20T01:02:20;79.67;;;38.13;;
6850;SDS011;3464;42.728;23.296;2023-03-20T01:04:46;74.13;;;36.80;;
6850;SDS011;3464;42.728;23.296;2023-03-20T01:07:14;70.00;;;36.73;;
6850;SDS011;3464;42.728;23.296;2023-03-20T01:09:40;77.20;;;37.97;;
6850;SDS011;3464;42.728;23.296;2023-03-20T01:12:08;67.87;;;34.20;;
6850;SDS011;3464;42.728;23.296;2023-03-20T01:14:33;62.40;;;33.77;;
6850;SDS011;3464;42.728;23.296;2023-03-20T01:17:00;69.57;;;34.47;;
6850;SDS011;3464;42.728;23.296;2023-03-20T01:19:27;63.37;;;33.37;;
6850;SDS011;3464;42.728;23.296;2023-03-20T01:21:53;61.90;;;33.33;;
6850;SDS011;3464;42.728;23.296;2023-03-20T01:24:21;63.50;;;33.60;;
6850;SDS011;3464;42.728;23.296;2023-03-20T01:26:48;62.50;;;31.73;;
6850;SDS011;3464;42.728;23.296;2023-03-20T01:29:16;61.73;;;31.43;;
6850;SDS011;3464;42.728;23.296;2023-03-20T01:31:43;64.00;;;32.10;;
6850;SDS011;3464;42.728;23.296;2023-03-20T01:34:10;73.30;;;35.50;;
6850;SDS011;3464;42.728;23.296;2023-03-20T01:36:36;60.90;;;32.57;;
6850;SDS011;3464;42.728;23.296;2023-03-20T01:39:04;71.33;;;32.40;;
6850;SDS011;3464;42.728;23.296;2023-03-20T01:41:30;61.93;;;32.37;;
6850;SDS011;3464;42.728;23.296;2023-03-20T01:44:16;52.33;;;28.77;;
6850;SDS011;3464;42.728;23.296;2023-03-20T01:46:25;58.00;;;32.30;;
6850;SDS011;3464;42.728;23.296;2023-03-20T01:51:41;58.00;;;30.80;;
6850;SDS011;3464;42.728;23.296;2023-03-20T01:54:10;60.37;;;31.30;;
6850;SDS011;3464;42.728;23.296;2023-03-20T01:56:38;64.57;;;31.77;;
6850;SDS011;3464;42.728;23.296;2023-03-20T01:59:05;58.37;;;31.20;;
6850;SDS011;3464;42.728;23.296;2023-03-20T02:01:32;62.13;;;28.50;;
6850;SDS011;3464;42.728;23.296;2023-03-20T02:03:59;54.00;;;28.93;;
6850;SDS011;3464;42.728;23.296;2023-03-20T02:06:25;50.17;;;26.50;;
6850;SDS011;3464;42.728;23.296;2023-03-20T02:08:52;58.20;;;30.50;;
6850;SDS011;3464;42.728;23.296;2023-03-20T02:11:21;53.90;;;27.50;;
6850;SDS011;3464;42.728;23.296;2023-03-20T02:13:47;52.63;;;29.60;;
6850;SDS011;3464;42.728;23.296;2023-03-20T02:16:14;56.93;;;28.70;;
6850;SDS011;3464;42.728;23.296;2023-03-20T02:18:43;50.37;;;26.93;;
6850;SDS011;3464;42.728;23.296;2023-03-20T02:22:22;53.40;;;28.60;;
6850;SDS011;3464;42.728;23.296;2023-03-20T02:29:46;53.63;;;26.47;;
6850;SDS011;3464;42.728;23.296;2023-03-20T02:35:22;44.97;;;24.17;;
6850;SDS011;3464;42.728;23.296;2023-03-20T02:37:49;45.57;;;23.77;;
6850;SDS011;3464;42.728;23.296;2023-03-20T02:43:09;41.77;;;21.73;;
6850;SDS011;3464;42.728;23.296;2023-03-20T02:45:35;38.77;;;21.20;;
6850;SDS011;3464;42.728;23.296;2023-03-20T02:48:05;40.40;;;21.20;;
6850;SDS011;3464;42.728;23.296;2023-03-20T02:50:46;41.63;;;20.90;;
6850;SDS011;3464;42.728;23.296;2023-03-20T02:53:19;37.40;;;21.60;;
6850;SDS011;3464;42.728;23.296;2023-03-20T02:56:36;41.77;;;20.83;;
6850;SDS011;3464;42.728;23.296;2023-03-20T02:59:01;34.87;;;19.73;;
6850;SDS011;3464;42.728;23.296;2023-03-20T03:01:40;35.60;;;20.17;;
6850;SDS011;3464;42.728;23.296;2023-03-20T03:04:08;36.87;;;20.37;;
6850;SDS011;3464;42.728;23.296;2023-03-20T03:06:35;35.33;;;19.27;;
6850;SDS011;3464;42.728;23.296;2023-03-20T03:09:06;38.90;;;20.47;;
6850;SDS011;3464;42.728;23.296;2023-03-20T03:11:33;38.50;;;19.20;;
6850;SDS011;3464;42.728;23.296;2023-03-20T03:13:58;35.83;;;20.10;;
6850;SDS011;3464;42.728;23.296;2023-03-20T03:16:28;37.50;;;20.03;;
6850;SDS011;3464;42.728;23.296;2023-03-20T03:18:57;38.37;;;19.03;;
6850;SDS011;3464;42.728;23.296;2023-03-20T03:21:20;37.57;;;21.77;;
6850;SDS011;3464;42.728;23.296;2023-03-20T03:23:48;37.30;;;19.67;;
6850;SDS011;3464;42.728;23.296;2023-03-20T03:26:20;35.37;;;19.50;;
6850;SDS011;3464;42.728;23.296;2023-03-20T03:28:49;35.17;;;20.20;;
6850;SDS011;3464;42.728;23.296;2023-03-20T03:31:23;37.50;;;20.03;;
6850;SDS011;3464;42.728;23.296;2023-03-20T03:34:07;38.10;;;21.80;;
6850;SDS011;3464;42.728;23.296;2023-03-20T03:39:23;40.73;;;20.83;;
6850;SDS011;3464;42.728;23.296;2023-03-20T03:44:36;45.27;;;23.40;;
6850;SDS011;3464;42.728;23.296;2023-03-20T03:47:13;41.33;;;22.40;;
6850;SDS011;3464;42.728;23.296;2023-03-20T03:49:41;41.87;;;23.40;;
6850;SDS011;3464;42.728;23.296;2023-03-20T03:52:09;53.87;;;22.63;;
6850;SDS011;3464;42.728;23.296;2023-03-20T03:54:42;40.57;;;22.90;;
6850;SDS011;3464;42.728;23.296;2023-03-20T03:57:06;47.20;;;23.80;;
6850;SDS011;3464;42.728;23.296;2023-03-20T03:59:35;44.47;;;22.90;;
6850;SDS011;3464;42.728;23.296;2023-03-20T04:02:03;39.97;;;21.23;;
6850;SDS011;3464;42.728;23.296;2023-03-20T04:04:29;41.57;;;21.60;;
6850;SDS011;3464;42.728;23.296;2023-03-20T04:06:56;40.33;;;21.33;;
6850;SDS011;3464;42.728;23.296;2023-03-20T04:09:25;38.53;;;20.90;;
6850;SDS011;3464;42.728;23.296;2023-03-20T04:11:51;41.60;;;21.57;;
6850;SDS011;3464;42.728;23.296;2023-03-20T04:14:20;38.23;;;20.70;;
6850;SDS011;3464;42.728;23.296;2023-03-20T04:16:48;43.20;;;21.40;;
6850;SDS011;3464;42.728;23.296;2023-03-20T04:19:15;36.40;;;20.53;;
6850;SDS011;3464;42.728;23.296;2023-03-20T04:21:41;40.90;;;21.20;;
6850;SDS011;3464;42.728;23.296;2023-03-20T04:24:08;46.67;;;24.20;;
6850;SDS011;3464;42.728;23.296;2023-03-20T04:26:35;46.80;;;25.40;;
6850;SDS011;3464;42.728;23.296;2023-03-20T04:29:01;52.27;;;25.37;;
6850;SDS011;3464;42.728;23.296;2023-03-20T04:31:28;52.97;;;28.10;;
6850;SDS011;3464;42.728;23.296;2023-03-20T04:33:55;54.23;;;26.47;;
6850;SDS011;3464;42.728;23.296;2023-03-20T04:36:22;52.03;;;25.30;;
6850;SDS011;3464;42.728;23.296;2023-03-20T04:38:49;51.17;;;24.53;;
6850;SDS011;3464;42.728;23.296;2023-03-20T04:41:16;53.70;;;22.67;;
6850;SDS011;3464;42.728;23.296;2023-03-20T04:43:42;49.63;;;18.77;;
6850;SDS011;3464;42.728;23.296;2023-03-20T04:46:10;38.20;;;19.47;;
6850;SDS011;3464;42.728;23.296;2023-03-20T04:48:39;55.10;;;21.07;;
6850;SDS011;3464;42.728;23.296;2023-03-20T04:51:07;37.37;;;17.47;;
6850;SDS011;3464;42.728;23.296;2023-03-20T04:53:34;41.97;;;18.53;;
6850;SDS011;3464;42.728;23.296;2023-03-20T04:56:01;36.77;;;17.97;;
6850;SDS011;3464;42.728;23.296;2023-03-20T04:58:27;39.53;;;19.47;;
6850;SDS011;3464;42.728;23.296;2023-03-20T05:00:54;36.57;;;18.10;;
6850;SDS011;3464;42.728;23.296;2023-03-20T05:03:21;44.47;;;20.37;;
6850;SDS011;3464;42.728;23.296;2023-03-20T05:05:47;47.17;;;20.23;;
6850;SDS011;3464;42.728;23.296;2023-03-20T05:08:14;45.20;;;21.80;;
6850;SDS011;3464;42.728;23.296;2023-03-20T05:10:40;42.47;;;22.47;;
6850;SDS011;3464;42.728;23.296;2023-03-20T05:13:07;53.33;;;23.20;;
6850;SDS011;3464;42.728;23.296;2023-03-20T05:15:34;48.63;;;22.53;;
6850;SDS011;3464;42.728;23.296;2023-03-20T05:18:01;45.33;;;23.20;;
6850;SDS011;3464;42.728;23.296;2023-03-20T05:20:28;57.80;;;26.40;;
6850;SDS011;3464;42.728;23.296;2023-03-20T05:22:55;57.67;;;26.47;;
6850;SDS011;3464;42.728;23.296;2023-03-20T05:25:21;56.80;;;28.17;;
6850;SDS011;3464;42.728;23.296;2023-03-20T05:27:48;67.90;;;29.20;;
6850;SDS011;3464;42.728;23.296;2023-03-20T05:30:15;58.50;;;28.20;;
6850;SDS011;3464;42.728;23.296;2023-03-20T05:32:42;57.03;;;27.03;;
6850;SDS011;3464;42.728;23.296;2023-03-20T05:35:08;70.10;;;29.17;;
6850;SDS011;3464;42.728;23.296;2023-03-20T05:37:36;67.23;;;30.20;;
6850;SDS011;3464;42.728;23.296;2023-03-20T05:40:03;68.30;;;30.30;;
6850;SDS011;3464;42.728;23.296;2023-03-20T05:42:30;62.07;;;26.70;;
6850;SDS011;3464;42.728;23.296;2023-03-20T05:44:57;68.40;;;27.60;;
6850;SDS011;3464;42.728;23.296;2023-03-20T05:47:24;63.57;;;24.73;;
6850;SDS011;3464;42.728;23.296;2023-03-20T05:49:50;56.67;;;25.67;;
6850;SDS011;3464;42.728;23.296;2023-03-20T05:52:17;57.30;;;23.13;;
6850;SDS011;3464;42.728;23.296;2023-03-20T05:54:43;62.87;;;21.20;;
6850;SDS011;3464;42.728;23.296;2023-03-20T05:57:10;58.17;;;18.93;;
6850;SDS011;3464;42.728;23.296;2023-03-20T05:59:44;51.20;;;20.60;;
6850;SDS011;3464;42.728;23.296;2023-03-20T06:02:34;32.60;;;15.40;;
6850;SDS011;3464;42.728;23.296;2023-03-20T06:05:23;35.60;;;16.97;;
6850;SDS011;3464;42.728;23.296;2023-03-20T06:08:13;33.83;;;16.00;;
6850;SDS011;3464;42.728;23.296;2023-03-20T06:11:02;34.83;;;15.27;;
6850;SDS011;3464;42.728;23.296;2023-03-20T06:13:52;40.30;;;16.60;;
6850;SDS011;3464;42.728;23.296;2023-03-20T06:16:41;33.03;;;14.57;;
6850;SDS011;3464;42.728;23.296;2023-03-20T06:19:31;35.23;;;15.70;;
6850;SDS011;3464;42.728;23.296;2023-03-20T06:22:21;33.27;;;14.43;;
6850;SDS011;3464;42.728;23.296;2023-03-20T06:25:11;32.87;;;14.87;;
6850;SDS011;3464;42.728;23.296;2023-03-20T06:27:54;37.43;;;15.50;;
6850;SDS011;3464;42.728;23.296;2023-03-20T06:30:21;33.97;;;15.40;;
6850;SDS011;3464;42.728;23.296;2023-03-20T06:32:48;33.47;;;15.53;;
6850;SDS011;3464;42.728;23.296;2023-03-20T06:35:15;36.33;;;15.33;;
6850;SDS011;3464;42.728;23.296;2023-03-20T06:37:42;29.40;;;13.83;;
6850;SDS011;3464;42.728;23.296;2023-03-20T06:40:09;37.57;;;13.93;;
6850;SDS011;3464;42.728;23.296;2023-03-20T06:42:36;33.50;;;14.47;;
6850;SDS011;3464;42.728;23.296;2023-03-20T06:45:03;33.50;;;15.17;;
6850;SDS011;3464;42.728;23.296;2023-03-20T06:47:31;31.23;;;13.83;;
6850;SDS011;3464;42.728;23.296;2023-03-20T06:49:57;30.60;;;13.80;;
6850;SDS011;3464;42.728;23.296;2023-03-20T06:52:25;30.77;;;14.30;;
6850;SDS011;3464;42.728;23.296;2023-03-20T06:54:51;30.43;;;14.43;;
6850;SDS011;3464;42.728;23.296;2023-03-20T06:57:18;31.60;;;13.67;;
6850;SDS011;3464;42.728;23.296;2023-03-20T06:59:44;33.83;;;13.80;;
6850;SDS011;3464;42.728;23.296;2023-03-20T07:02:11;32.30;;;12.83;;
6850;SDS011;3464;42.728;23.296;2023-03-20T07:04:39;32.20;;;13.50;;
6850;SDS011;3464;42.728;23.296;2023-03-20T07:07:06;34.40;;;13.60;;
6850;SDS011;3464;42.728;23.296;2023-03-20T07:09:32;38.97;;;13.60;;
6850;SDS011;3464;42.728;23.296;2023-03-20T07:11:59;38.10;;;13.50;;
6850;SDS011;3464;42.728;23.296;2023-03-20T07:14:26;31.83;;;12.80;;
6850;SDS011;3464;42.728;23.296;2023-03-20T07:16:52;33.27;;;13.30;;
6850;SDS011;3464;42.728;23.296;2023-03-20T07:19:20;30.60;;;13.57;;
6850;SDS011;3464;42.728;23.296;2023-03-20T07:21:46;30.83;;;12.93;;
6850;SDS011;3464;42.728;23.296;2023-03-20T07:24:13;29.77;;;12.83;;
6850;SDS011;3464;42.728;23.296;2023-03-20T07:26:39;30.30;;;12.93;;
6850;SDS011;3464;42.728;23.296;2023-03-20T07:29:06;23.60;;;12.00;;
6850;SDS011;3464;42.728;23.296;2023-03-20T07:31:32;24.27;;;12.10;;
6850;SDS011;3464;42.728;23.296;2023-03-20T07:34:00;32.00;;;13.53;;
6850;SDS011;3464;42.728;23.296;2023-03-20T07:36:26;31.40;;;12.63;;
6850;SDS011;3464;42.728;23.296;2023-03-20T07:38:53;32.37;;;12.83;;
6850;SDS011;3464;42.728;23.296;2023-03-20T07:41:20;27.40;;;12.23;;
6850;SDS011;3464;42.728;23.296;2023-03-20T07:43:47;30.80;;;13.23;;
6850;SDS011;3464;42.728;23.296;2023-03-20T07:46:13;32.93;;;12.97;;
6850;SDS011;3464;42.728;23.296;2023-03-20T07:48:40;28.97;;;12.03;;
6850;SDS011;3464;42.728;23.296;2023-03-20T07:51:06;29.03;;;11.53;;
6850;SDS011;3464;42.728;23.296;2023-03-20T07:53:33;28.83;;;12.50;;
6850;SDS011;3464;42.728;23.296;2023-03-20T07:55:59;28.90;;;12.90;;
6850;SDS011;3464;42.728;23.296;2023-03-20T07:58:26;41.83;;;14.23;;
6850;SDS011;3464;42.728;23.296;2023-03-20T08:00:55;25.60;;;12.93;;
6850;SDS011;3464;42.728;23.296;2023-03-20T08:03:21;28.77;;;13.97;;
6850;SDS011;3464;42.728;23.296;2023-03-20T08:05:54;28.20;;;13.60;;
6850;SDS011;3464;42.728;23.296;2023-03-20T08:08:38;31.10;;;14.73;;
6850;SDS011;3464;42.728;23.296;2023-03-20T08:11:06;27.50;;;15.10;;
6850;SDS011;3464;42.728;23.296;2023-03-20T08:13:32;34.17;;;14.47;;
6850;SDS011;3464;42.728;23.296;2023-03-20T08:15:59;28.77;;;14.13;;
6850;SDS011;3464;42.728;23.296;2023-03-20T08:18:25;33.60;;;15.77;;
6850;SDS011;3464;42.728;23.296;2023-03-20T08:20:52;33.87;;;15.50;;
6850;SDS011;3464;42.728;23.296;2023-03-20T08:23:19;32.83;;;14.23;;
6850;SDS011;3464;42.728;23.296;2023-03-20T08:25:48;31.90;;;13.17;;
6850;SDS011;3464;42.728;23.296;2023-03-20T08:28:14;43.47;;;15.50;;
6850;SDS011;3464;42.728;23.296;2023-03-20T08:30:41;35.60;;;14.27;;
6850;SDS011;3464;42.728;23.296;2023-03-20T08:33:08;31.97;;;14.33;;
6850;SDS011;3464;42.728;23.296;2023-03-20T08:35:34;32.60;;;14.03;;
6850;SDS011;3464;42.728;23.296;2023-03-20T08:38:01;31.93;;;13.33;;
6850;SDS011;3464;42.728;23.296;2023-03-20T08:40:28;35.80;;;13.30;;
6850;SDS011;3464;42.728;23.296;2023-03-20T08:42:55;35.33;;;13.70;;
6850;SDS011;3464;42.728;23.296;2023-03-20T08:45:22;30.50;;;13.90;;
6850;SDS011;3464;42.728;23.296;2023-03-20T08:47:50;29.53;;;13.33;;
6850;SDS011;3464;42.728;23.296;2023-03-20T08:50:16;27.97;;;12.40;;
6850;SDS011;3464;42.728;23.296;2023-03-20T08:52:43;34.30;;;12.87;;
6850;SDS011;3464;42.728;23.296;2023-03-20T08:55:10;31.60;;;13.63;;
6850;SDS011;3464;42.728;23.296;2023-03-20T08:57:37;30.10;;;13.27;;
6850;SDS011;3464;42.728;23.296;2023-03-20T09:00:03;34.97;;;13.73;;
6850;SDS011;3464;42.728;23.296;2023-03-20T09:02:31;30.30;;;11.80;;
6850;SDS011;3464;42.728;23.296;2023-03-20T09:04:58;30.87;;;12.90;;
6850;SDS011;3464;42.728;23.296;2023-03-20T09:07:25;36.20;;;12.97;;
6850;SDS011;3464;42.728;23.296;2023-03-20T09:09:52;26.27;;;12.73;;
6850;SDS011;3464;42.728;23.296;2023-03-20T09:12:19;23.70;;;11.30;;
6850;SDS011;3464;42.728;23.296;2023-03-20T09:14:46;31.23;;;12.60;;
6850;SDS011;3464;42.728;23.296;2023-03-20T09:17:12;29.43;;;13.30;;
6850;SDS011;3464;42.728;23.296;2023-03-20T09:19:39;32.57;;;13.77;;
6850;SDS011;3464;42.728;23.296;2023-03-20T09:22:06;28.33;;;12.30;;
6850;SDS011;3464;42.728;23.296;2023-03-20T09:24:32;36.63;;;12.67;;
6850;SDS011;3464;42.728;23.296;2023-03-20T09:26:59;32.87;;;12.30;;
6850;SDS011;3464;42.728;23.296;2023-03-20T09:29:26;26.60;;;12.50;;
6850;SDS011;3464;42.728;23.296;2023-03-20T09:31:52;40.10;;;14.33;;
6850;SDS011;3464;42.728;23.296;2023-03-20T09:34:19;34.33;;;14.13;;
6850;SDS011;3464;42.728;23.296;2023-03-20T09:36:46;39.10;;;15.00;;
6850;SDS011;3464;42.728;23.296;2023-03-20T09:39:12;33.57;;;15.20;;
6850;SDS011;3464;42.728;23.296;2023-03-20T09:41:39;26.60;;;13.33;;
6850;SDS011;3464;42.728;23.296;2023-03-20T09:44:13;30.37;;;13.87;;
6850;SDS011;3464;42.728;23.296;2023-03-20T09:46:44;31.80;;;15.17;;
6850;SDS011;3464;42.728;23.296;2023-03-20T09:49:12;32.00;;;14.20;;
6850;SDS011;3464;42.728;23.296;2023-03-20T09:51:52;29.93;;;13.57;;
6850;SDS011;3464;42.728;23.296;2023-03-20T09:54:24;34.80;;;14.57;;
6850;SDS011;3464;42.728;23.296;2023-03-20T09:56:54;34.43;;;13.43;;
6850;SDS011;3464;42.728;23.296;2023-03-20T09:59:19;34.07;;;15.40;;
6850;SDS011;3464;42.728;23.296;2023-03-20T10:01:48;29.57;;;14.10;;
6850;SDS011;3464;42.728;23.296;2023-03-20T10:04:14;32.97;;;14.50;;
6850;SDS011;3464;42.728;23.296;2023-03-20T10:06:40;30.00;;;14.57;;
6850;SDS011;3464;42.728;23.296;2023-03-20T10:09:17;30.23;;;14.00;;
6850;SDS011;3464;42.728;23.296;2023-03-20T10:14:46;27.70;;;13.10;;
6850;SDS011;3464;42.728;23.296;2023-03-20T10:17:19;37.20;;;13.90;;
6850;SDS011;3464;42.728;23.296;2023-03-20T10:19:49;28.40;;;12.13;;
6850;SDS011;3464;42.728;23.296;2023-03-20T10:22:22;25.67;;;12.20;;
6850;SDS011;3464;42.728;23.296;2023-03-20T10:24:55;28.40;;;12.07;;
6850;SDS011;3464;42.728;23.296;2023-03-20T10:27:23;27.53;;;12.97;;
6850;SDS011;3464;42.728;23.296;2023-03-20T10:29:52;23.57;;;11.03;;
6850;SDS011;3464;42.728;23.296;2023-03-20T10:32:22;26.33;;;11.23;;
6850;SDS011;3464;42.728;23.296;2023-03-20T10:34:58;25.80;;;11.57;;
6850;SDS011;3464;42.728;23.296;2023-03-20T10:40:20;24.33;;;11.33;;
6850;SDS011;3464;42.728;23.296;2023-03-20T10:42:56;31.43;;;11.10;;
6850;SDS011;3464;42.728;23.296;2023-03-20T10:45:26;28.57;;;10.47;;
6850;SDS011;3464;42.728;23.296;2023-03-20T10:48:06;26.23;;;10.40;;
6850;SDS011;3464;42.728;23.296;2023-03-20T10:50:36;22.73;;;10.00;;
6850;SDS011;3464;42.728;23.296;2023-03-20T10:53:01;28.23;;;9.50;;
6850;SDS011;3464;42.728;23.296;2023-03-20T10:55:29;22.47;;;9.27;;
6850;SDS011;3464;42.728;23.296;2023-03-20T10:57:57;20.37;;;9.40;;
6850;SDS011;3464;42.728;23.296;2023-03-20T11:00:33;23.77;;;9.90;;
6850;SDS011;3464;42.728;23.296;2023-03-20T11:03:00;27.97;;;9.20;;
6850;SDS011;3464;42.728;23.296;2023-03-20T11:05:31;26.17;;;9.67;;
6850;SDS011;3464;42.728;23.296;2023-03-20T11:08:08;31.40;;;10.13;;
6850;SDS011;3464;42.728;23.296;2023-03-20T11:10:38;22.17;;;9.60;;
6850;SDS011;3464;42.728;23.296;2023-03-20T11:13:38;22.70;;;9.20;;
6850;SDS011;3464;42.728;23.296;2023-03-20T11:15:50;26.87;;;9.60;;
6850;SDS011;3464;42.728;23.296;2023-03-20T11:18:16;27.70;;;10.13;;
6850;SDS011;3464;42.728;23.296;2023-03-20T11:20:45;20.67;;;9.17;;
6850;SDS011;3464;42.728;23.296;2023-03-20T11:23:13;25.77;;;9.50;;
6850;SDS011;3464;42.728;23.296;2023-03-20T11:25:45;27.30;;;9.80;;
6850;SDS011;3464;42.728;23.296;2023-03-20T11:28:24;23.27;;;8.77;;
6850;SDS011;3464;42.728;23.296;2023-03-20T11:31:18;22.87;;;7.90;;
6850;SDS011;3464;42.728;23.296;2023-03-20T11:37:05;22.67;;;8.10;;
6850;SDS011;3464;42.728;23.296;2023-03-20T11:39:29;23.77;;;7.90;;
6850;SDS011;3464;42.728;23.296;2023-03-20T11:41:58;27.73;;;6.80;;
6850;SDS011;3464;42.728;23.296;2023-03-20T11:44:29;19.60;;;5.80;;
6850;SDS011;3464;42.728;23.296;2023-03-20T11:47:00;18.63;;;6.33;;
6850;SDS011;3464;42.728;23.296;2023-03-20T11:49:28;20.50;;;6.10;;
6850;SDS011;3464;42.728;23.296;2023-03-20T11:51:56;16.57;;;5.60;;
6850;SDS011;3464;42.728;23.296;2023-03-20T11:54:22;16.43;;;5.30;;
6850;SDS011;3464;42.728;23.296;2023-03-20T11:56:51;17.13;;;5.83;;
6850;SDS011;3464;42.728;23.296;2023-03-20T11:59:20;23.00;;;5.30;;
6850;SDS011;3464;42.728;23.296;2023-03-20T12:01:48;18.63;;;4.63;;
6850;SDS011;3464;42.728;23.296;2023-03-20T12:04:16;17.00;;;4.87;;
6850;SDS011;3464;42.728;23.296;2023-03-20T12:06:43;14.63;;;4.63;;
6850;SDS011;3464;42.728;23.296;2023-03-20T12:09:27;17.90;;;4.70;;
6850;SDS011;3464;42.728;23.296;2023-03-20T12:12:12;12.97;;;4.00;;
6850;SDS011;3464;42.728;23.296;2023-03-20T12:14:45;15.67;;;3.60;;
6850;SDS011;3464;42.728;23.296;2023-03-20T12:17:26;12.43;;;3.47;;
6850;SDS011;3464;42.728;23.296;2023-03-20T12:19:50;13.07;;;3.63;;
6850;SDS011;3464;42.728;23.296;2023-03-20T12:22:22;13.63;;;3.80;;
6850;SDS011;3464;42.728;23.296;2023-03-20T12:24:55;16.53;;;4.07;;
6850;SDS011;3464;42.728;23.296;2023-03-20T12:27:36;14.00;;;4.80;;
6850;SDS011;3464;42.728;23.296;2023-03-20T12:30:09;11.50;;;4.00;;
6850;SDS011;3464;42.728;23.296;2023-03-20T12:32:43;14.07;;;4.00;;
6850;SDS011;3464;42.728;23.296;2023-03-20T12:35:14;11.40;;;3.80;;
6850;SDS011;3464;42.728;23.296;2023-03-20T12:37:56;12.80;;;4.20;;
6850;SDS011;3464;42.728;23.296;2023-03-20T12:40:29;13.97;;;3.90;;
6850;SDS011;3464;42.728;23.296;2023-03-20T12:43:14;16.30;;;3.60;;
6850;SDS011;3464;42.728;23.296;2023-03-20T12:45:46;12.13;;;3.57;;
6850;SDS011;3464;42.728;23.296;2023-03-20T12:48:31;12.30;;;4.00;;
6850;SDS011;3464;42.728;23.296;2023-03-20T12:51:03;15.03;;;5.00;;
6850;SDS011;3464;42.728;23.296;2023-03-20T12:53:52;15.70;;;4.33;;
6850;SDS011;3464;42.728;23.296;2023-03-20T12:56:48;12.93;;;4.00;;
6850;SDS011;3464;42.728;23.296;2023-03-20T12:59:21;13.90;;;3.67;;
6850;SDS011;3464;42.728;23.296;2023-03-20T13:01:49;15.93;;;4.27;;
6850;SDS011;3464;42.728;23.296;2023-03-20T13:04:41;12.90;;;4.07;;
6850;SDS011;3464;42.728;23.296;2023-03-20T13:07:08;12.33;;;4.33;;
6850;SDS011;3464;42.728;23.296;2023-03-20T13:15:06;12.80;;;4.57;;
6850;SDS011;3464;42.728;23.296;2023-03-20T13:17:38;16.50;;;5.17;;
6850;SDS011;3464;42.728;23.296;2023-03-20T13:22:47;12.60;;;4.50;;
6850;SDS011;3464;42.728;23.296;2023-03-20T13:28:11;15.50;;;4.83;;
6850;SDS011;3464;42.728;23.296;2023-03-20T13:30:53;13.93;;;4.93;;
6850;SDS011;3464;42.728;23.296;2023-03-20T13:33:24;15.40;;;4.60;;
6850;SDS011;3464;42.728;23.296;2023-03-20T13:35:52;14.40;;;5.13;;
6850;SDS011;3464;42.728;23.296;2023-03-20T13:38:18;12.90;;;4.60;;
6850;SDS011;3464;42.728;23.296;2023-03-20T13:40:45;13.30;;;4.67;;
6850;SDS011;3464;42.728;23.296;2023-03-20T13:43:15;14.63;;;5.47;;
6850;SDS011;3464;42.728;23.296;2023-03-20T13:46:11;15.30;;;4.80;;
6850;SDS011;3464;42.728;23.296;2023-03-20T13:48:39;13.70;;;5.03;;
6850;SDS011;3464;42.728;23.296;2023-03-20T13:51:07;16.63;;;5.17;;
6850;SDS011;3464;42.728;23.296;2023-03-20T13:53:38;12.87;;;4.47;;
6850;SDS011;3464;42.728;23.296;2023-03-20T13:58:57;13.77;;;4.57;;
6850;SDS011;3464;42.728;23.296;2023-03-20T14:01:44;14.27;;;5.27;;
6850;SDS011;3464;42.728;23.296;2023-03-20T14:04:15;14.30;;;4.77;;
6850;SDS011;3464;42.728;23.296;2023-03-20T14:06:43;16.47;;;4.63;;
6850;SDS011;3464;42.728;23.296;2023-03-20T14:09:30;12.33;;;4.30;;
6850;SDS011;3464;42.728;23.296;2023-03-20T14:12:07;14.33;;;4.90;;
6850;SDS011;3464;42.728;23.296;2023-03-20T14:17:18;13.17;;;4.00;;
6850;SDS011;3464;42.728;23.296;2023-03-20T14:19:48;14.70;;;4.03;;
6850;SDS011;3464;42.728;23.296;2023-03-20T14:22:17;13.00;;;3.80;;
6850;SDS011;3464;42.728;23.296;2023-03-20T14:24:47;14.60;;;4.87;;
6850;SDS011;3464;42.728;23.296;2023-03-20T14:27:14;16.93;;;4.30;;
6850;SDS011;3464;42.728;23.296;2023-03-20T14:29:37;15.30;;;3.90;;
6850;SDS011;3464;42.728;23.296;2023-03-20T14:32:04;12.90;;;3.60;;
6850;SDS011;3464;42.728;23.296;2023-03-20T14:39:56;12.10;;;3.67;;
6850;SDS011;3464;42.728;23.296;2023-03-20T14:42:25;13.57;;;3.30;;
6850;SDS011;3464;42.728;23.296;2023-03-20T14:45:05;11.40;;;3.40;;
6850;SDS011;3464;42.728;23.296;2023-03-20T14:47:47;21.23;;;9.00;;
6850;SDS011;3464;42.728;23.296;2023-03-20T14:50:23;11.30;;;4.10;;
6850;SDS011;3464;42.728;23.296;2023-03-20T14:53:02;11.90;;;3.67;;
6850;SDS011;3464;42.728;23.296;2023-03-20T14:55:29;12.13;;;4.10;;
6850;SDS011;3464;42.728;23.296;2023-03-20T14:58:00;16.97;;;6.60;;
6850;SDS011;3464;42.728;23.296;2023-03-20T15:00:27;13.57;;;4.30;;
6850;SDS011;3464;42.728;23.296;2023-03-20T15:02:57;15.83;;;4.43;;
6850;SDS011;3464;42.728;23.296;2023-03-20T15:05:34;14.20;;;4.57;;
6850;SDS011;3464;42.728;23.296;2023-03-20T15:08:03;13.17;;;3.90;;
6850;SDS011;3464;42.728;23.296;2023-03-20T15:10:33;44.60;;;26.40;;
6850;SDS011;3464;42.728;23.296;2023-03-20T15:12:58;14.37;;;5.13;;
6850;SDS011;3464;42.728;23.296;2023-03-20T15:15:26;12.63;;;3.87;;
6850;SDS011;3464;42.728;23.296;2023-03-20T15:17:51;15.97;;;4.60;;
6850;SDS011;3464;42.728;23.296;2023-03-20T15:20:19;18.43;;;4.30;;
6850;SDS011;3464;42.728;23.296;2023-03-20T15:22:47;14.40;;;4.30;;
6850;SDS011;3464;42.728;23.296;2023-03-20T15:25:15;16.50;;;4.30;;
6850;SDS011;3464;42.728;23.296;2023-03-20T15:27:41;16.03;;;6.03;;
6850;SDS011;3464;42.728;23.296;2023-03-20T15:30:08;18.10;;;4.10;;
6850;SDS011;3464;42.728;23.296;2023-03-20T15:32:36;14.40;;;4.00;;
6850;SDS011;3464;42.728;23.296;2023-03-20T15:35:04;13.13;;;3.80;;
6850;SDS011;3464;42.728;23.296;2023-03-20T15:37:31;14.30;;;4.33;;
6850;SDS011;3464;42.728;23.296;2023-03-20T15:39:59;13.27;;;4.20;;
6850;SDS011;3464;42.728;23.296;2023-03-20T15:42:25;14.13;;;4.10;;
6850;SDS011;3464;42.728;23.296;2023-03-20T15:44:53;15.63;;;4.60;;
6850;SDS011;3464;42.728;23.296;2023-03-20T15:47:20;14.40;;;4.53;;